TVS3420 GCXO-LEPP
Flight info
| Callsign | TVS3420 |
|---|---|
| Flight time | N/A |
| Altitude | 35000 |
| Route | KONBA UN866 BEXAL UN872 ESP DCT MAGUM UN745 RIVRO N745 ZMR DCT NEA DCT NOLSA |
| Aircraft | B738/M-SDE2E3FGHIRWXY/LB1 |
Departure
| Time | 2026-04-24 08:15 |
|---|---|
| Airport | Tenerife Norte-Ciudad de La Laguna Airport (GCXO) |
Arrival
| Time | N/A |
|---|---|
| Airport | Pamplona Airport (LEPP) |
| Time | Latitude | Longitude | Altitude | Speed | Heading |
|---|---|---|---|---|---|
| 2026-04-24 07:55 | 28.48753 | -16.34943 | 2070 ft | 0 kts | 19° |
| 2026-04-24 08:07 | 28.48739 | -16.34949 | 2071 ft | 4 kts | 21° |
| 2026-04-24 08:08 | 28.48714 | -16.34961 | 2071 ft | 4 kts | 26° |
| 2026-04-24 08:08 | 28.48691 | -16.34975 | 2071 ft | 4 kts | 35° |
| 2026-04-24 08:08 | 28.48671 | -16.34995 | 2070 ft | 4 kts | 62° |
| 2026-04-24 08:09 | 28.48668 | -16.35014 | 2070 ft | 0 kts | 111° |
| 2026-04-24 08:10 | 28.48665 | -16.35005 | 2070 ft | 5 kts | 111° |
| 2026-04-24 08:10 | 28.48641 | -16.34935 | 2070 ft | 15 kts | 110° |
| 2026-04-24 08:11 | 28.48594 | -16.34792 | 2069 ft | 24 kts | 110° |
| 2026-04-24 08:11 | 28.48525 | -16.34585 | 2067 ft | 30 kts | 110° |
| 2026-04-24 08:11 | 28.48450 | -16.34359 | 2063 ft | 30 kts | 110° |
| 2026-04-24 08:11 | 28.48378 | -16.34142 | 2059 ft | 29 kts | 110° |
| 2026-04-24 08:12 | 28.48310 | -16.33937 | 2052 ft | 27 kts | 110° |
| 2026-04-24 08:12 | 28.48245 | -16.33744 | 2046 ft | 25 kts | 111° |
| 2026-04-24 08:12 | 28.48185 | -16.33562 | 2037 ft | 24 kts | 110° |
| 2026-04-24 08:12 | 28.48124 | -16.33375 | 2033 ft | 26 kts | 111° |
| 2026-04-24 08:13 | 28.48055 | -16.33167 | 2026 ft | 30 kts | 111° |
| 2026-04-24 08:13 | 28.47977 | -16.32933 | 2017 ft | 33 kts | 110° |
| 2026-04-24 08:13 | 28.47896 | -16.32689 | 2012 ft | 28 kts | 110° |
| 2026-04-24 08:13 | 28.47779 | -16.32536 | 2009 ft | 27 kts | 180° |
| 2026-04-24 08:14 | 28.47774 | -16.32680 | 2011 ft | 23 kts | 295° |
| 2026-04-24 08:14 | 28.47858 | -16.32926 | 2013 ft | 62 kts | 291° |
| 2026-04-24 08:14 | 28.48095 | -16.33635 | 2039 ft | 128 kts | 290° |
| 2026-04-24 08:14 | 28.48472 | -16.34757 | 2137 ft | 176 kts | 291° |
| 2026-04-24 08:15 | 28.48964 | -16.36115 | 2706 ft | 198 kts | 294° |
| 2026-04-24 08:15 | 28.49556 | -16.37701 | 2840 ft | 238 kts | 293° |
| 2026-04-24 08:15 | 28.50210 | -16.39545 | 3238 ft | 257 kts | 293° |
| 2026-04-24 08:15 | 28.50855 | -16.41373 | 4279 ft | 237 kts | 293° |
| 2026-04-24 08:16 | 28.51455 | -16.43065 | 5180 ft | 228 kts | 293° |
| 2026-04-24 08:16 | 28.52166 | -16.44728 | 5477 ft | 242 kts | 310° |
| 2026-04-24 08:16 | 28.53517 | -16.45865 | 5874 ft | 246 kts | 341° |
| 2026-04-24 08:16 | 28.55185 | -16.46057 | 6397 ft | 247 kts | 10° |
| 2026-04-24 08:17 | 28.56805 | -16.45392 | 6921 ft | 249 kts | 22° |
| 2026-04-24 08:17 | 28.58420 | -16.44623 | 7404 ft | 253 kts | 22° |
| 2026-04-24 08:17 | 28.60055 | -16.43848 | 7907 ft | 256 kts | 21° |
| 2026-04-24 08:17 | 28.61707 | -16.43064 | 8468 ft | 258 kts | 21° |
| 2026-04-24 08:18 | 28.63378 | -16.42271 | 9013 ft | 261 kts | 21° |
| 2026-04-24 08:18 | 28.65063 | -16.41468 | 9600 ft | 263 kts | 20° |
| 2026-04-24 08:18 | 28.66741 | -16.40670 | 10172 ft | 267 kts | 20° |
| 2026-04-24 08:18 | 28.68518 | -16.39825 | 10394 ft | 288 kts | 20° |
| 2026-04-24 08:19 | 28.70444 | -16.38911 | 10580 ft | 311 kts | 20° |
| 2026-04-24 08:19 | 28.72513 | -16.37927 | 10756 ft | 333 kts | 20° |
| 2026-04-24 08:19 | 28.74715 | -16.36878 | 10927 ft | 353 kts | 20° |
| 2026-04-24 08:19 | 28.77024 | -16.35775 | 11345 ft | 363 kts | 20° |
| 2026-04-24 08:20 | 28.79366 | -16.34653 | 11941 ft | 367 kts | 20° |
| 2026-04-24 08:20 | 28.81707 | -16.33531 | 12565 ft | 370 kts | 20° |
| 2026-04-24 08:20 | 28.84095 | -16.32386 | 13170 ft | 374 kts | 19° |
| 2026-04-24 08:20 | 28.86510 | -16.31228 | 13740 ft | 379 kts | 19° |
| 2026-04-24 08:21 | 28.88951 | -16.30059 | 14281 ft | 382 kts | 19° |
| 2026-04-24 08:21 | 28.91415 | -16.28878 | 14816 ft | 386 kts | 19° |
| 2026-04-24 08:21 | 28.93898 | -16.27686 | 15342 ft | 389 kts | 19° |
| 2026-04-24 08:21 | 28.96405 | -16.26483 | 15868 ft | 392 kts | 19° |
| 2026-04-24 08:22 | 28.98932 | -16.25270 | 16383 ft | 396 kts | 19° |
| 2026-04-24 08:22 | 29.01484 | -16.24044 | 16891 ft | 399 kts | 19° |
| 2026-04-24 08:22 | 29.04062 | -16.22806 | 17403 ft | 402 kts | 19° |
| 2026-04-24 08:22 | 29.06658 | -16.21557 | 17893 ft | 406 kts | 19° |
| 2026-04-24 08:23 | 29.09274 | -16.20299 | 18383 ft | 409 kts | 19° |
| 2026-04-24 08:23 | 29.11880 | -16.19045 | 18810 ft | 413 kts | 19° |
| 2026-04-24 08:23 | 29.14533 | -16.17766 | 19242 ft | 415 kts | 19° |
| 2026-04-24 08:23 | 29.17206 | -16.16478 | 19684 ft | 418 kts | 19° |
| 2026-04-24 08:24 | 29.19892 | -16.15183 | 20114 ft | 421 kts | 19° |
| 2026-04-24 08:24 | 29.22602 | -16.13875 | 20545 ft | 423 kts | 19° |
| 2026-04-24 08:24 | 29.25327 | -16.12560 | 20977 ft | 426 kts | 19° |
| 2026-04-24 08:24 | 29.28069 | -16.11235 | 21394 ft | 429 kts | 19° |
| 2026-04-24 08:25 | 29.30830 | -16.09901 | 21818 ft | 432 kts | 19° |
| 2026-04-24 08:25 | 29.33609 | -16.08557 | 22216 ft | 434 kts | 19° |
| 2026-04-24 08:25 | 29.36370 | -16.07221 | 22616 ft | 437 kts | 20° |
| 2026-04-24 08:25 | 29.39183 | -16.05859 | 23006 ft | 440 kts | 20° |
| 2026-04-24 08:26 | 29.42011 | -16.04489 | 23377 ft | 443 kts | 20° |
| 2026-04-24 08:26 | 29.44861 | -16.03108 | 23741 ft | 445 kts | 20° |
| 2026-04-24 08:26 | 29.47729 | -16.01717 | 24064 ft | 448 kts | 20° |
| 2026-04-24 08:26 | 29.50605 | -16.00320 | 24399 ft | 449 kts | 20° |
| 2026-04-24 08:27 | 29.52519 | -15.99391 | 24616 ft | 451 kts | 20° |
| 2026-04-24 08:27 | 29.55413 | -15.97985 | 24940 ft | 453 kts | 20° |
| 2026-04-24 08:27 | 29.58315 | -15.96574 | 25256 ft | 455 kts | 20° |
| 2026-04-24 08:27 | 29.61239 | -15.95151 | 25575 ft | 456 kts | 20° |
| 2026-04-24 08:28 | 29.65125 | -15.93259 | 25978 ft | 459 kts | 20° |
| 2026-04-24 08:28 | 29.67115 | -15.92290 | 26195 ft | 460 kts | 20° |
| 2026-04-24 08:28 | 29.70075 | -15.90847 | 26493 ft | 462 kts | 20° |
| 2026-04-24 08:28 | 29.73042 | -15.89400 | 26778 ft | 464 kts | 20° |
| 2026-04-24 08:29 | 29.75982 | -15.87966 | 27056 ft | 466 kts | 19° |
| 2026-04-24 08:29 | 29.78973 | -15.86505 | 27340 ft | 468 kts | 19° |
| 2026-04-24 08:29 | 29.81976 | -15.85037 | 27628 ft | 469 kts | 19° |
| 2026-04-24 08:29 | 29.84989 | -15.83564 | 27898 ft | 471 kts | 19° |
| 2026-04-24 08:30 | 29.88011 | -15.82085 | 28160 ft | 473 kts | 19° |
| 2026-04-24 08:30 | 29.91045 | -15.80598 | 28414 ft | 475 kts | 19° |
| 2026-04-24 08:30 | 29.94097 | -15.79103 | 28682 ft | 476 kts | 19° |
| 2026-04-24 08:30 | 29.97155 | -15.77604 | 28940 ft | 478 kts | 19° |
| 2026-04-24 08:31 | 30.00244 | -15.76196 | 29272 ft | 475 kts | 15° |
| 2026-04-24 08:31 | 30.03384 | -15.75018 | 29680 ft | 472 kts | 13° |
| 2026-04-24 08:31 | 30.06525 | -15.73939 | 30093 ft | 470 kts | 12° |
| 2026-04-24 08:31 | 30.09665 | -15.72892 | 30419 ft | 469 kts | 12° |
| 2026-04-24 08:32 | 30.12766 | -15.71856 | 30707 ft | 469 kts | 12° |
| 2026-04-24 08:32 | 30.15893 | -15.70797 | 30999 ft | 468 kts | 12° |
| 2026-04-24 08:32 | 30.19015 | -15.69722 | 31301 ft | 468 kts | 12° |
| 2026-04-24 08:32 | 30.22132 | -15.68636 | 31579 ft | 467 kts | 12° |
| 2026-04-24 08:33 | 30.25240 | -15.67545 | 31876 ft | 467 kts | 12° |
| 2026-04-24 08:33 | 30.28344 | -15.66451 | 32185 ft | 466 kts | 12° |
| 2026-04-24 08:33 | 30.31436 | -15.65359 | 32462 ft | 465 kts | 12° |
| 2026-04-24 08:33 | 30.34531 | -15.64266 | 32742 ft | 464 kts | 12° |
| 2026-04-24 08:34 | 30.37626 | -15.63172 | 33013 ft | 464 kts | 12° |
| 2026-04-24 08:34 | 30.40718 | -15.62080 | 33291 ft | 463 kts | 12° |
| 2026-04-24 08:34 | 30.43758 | -15.61005 | 33573 ft | 462 kts | 12° |
| 2026-04-24 08:34 | 30.46832 | -15.59918 | 33845 ft | 461 kts | 12° |
| 2026-04-24 08:35 | 30.49907 | -15.58831 | 34093 ft | 461 kts | 12° |
| 2026-04-24 08:35 | 30.56081 | -15.56647 | 34147 ft | 465 kts | 12° |
| 2026-04-24 08:36 | 30.62258 | -15.54455 | 34137 ft | 461 kts | 12° |
| 2026-04-24 08:36 | 30.68365 | -15.52284 | 34144 ft | 457 kts | 12° |
| 2026-04-24 08:37 | 30.74411 | -15.50135 | 34147 ft | 456 kts | 12° |
| 2026-04-24 08:37 | 30.80468 | -15.47980 | 34149 ft | 455 kts | 12° |
| 2026-04-24 08:38 | 30.86525 | -15.45821 | 34148 ft | 455 kts | 12° |
| 2026-04-24 08:38 | 30.92588 | -15.43658 | 34154 ft | 456 kts | 12° |
| 2026-04-24 08:39 | 30.98634 | -15.41497 | 34149 ft | 457 kts | 12° |
| 2026-04-24 08:39 | 31.04729 | -15.39315 | 34146 ft | 458 kts | 12° |
| 2026-04-24 08:40 | 31.10830 | -15.37128 | 34146 ft | 459 kts | 12° |
| 2026-04-24 08:40 | 31.16949 | -15.34932 | 34139 ft | 460 kts | 11° |
| 2026-04-24 08:41 | 31.23072 | -15.32731 | 34141 ft | 460 kts | 11° |
| 2026-04-24 08:41 | 31.29191 | -15.30452 | 34134 ft | 464 kts | 16° |
| 2026-04-24 08:42 | 31.34838 | -15.26757 | 34155 ft | 472 kts | 28° |
| 2026-04-24 08:42 | 31.40295 | -15.22430 | 34138 ft | 472 kts | 29° |
| 2026-04-24 08:43 | 31.45733 | -15.18111 | 34135 ft | 472 kts | 28° |
| 2026-04-24 08:43 | 31.51159 | -15.13857 | 34140 ft | 471 kts | 28° |
| 2026-04-24 08:44 | 31.56612 | -15.09609 | 34140 ft | 470 kts | 28° |
| 2026-04-24 08:44 | 31.62061 | -15.05363 | 34140 ft | 470 kts | 28° |
| 2026-04-24 08:45 | 31.67502 | -15.01117 | 34142 ft | 469 kts | 28° |
| 2026-04-24 08:45 | 31.72934 | -14.96869 | 34139 ft | 469 kts | 28° |
| 2026-04-24 08:46 | 31.78356 | -14.92622 | 34141 ft | 468 kts | 28° |
| 2026-04-24 08:46 | 31.83776 | -14.88371 | 34141 ft | 468 kts | 28° |
| 2026-04-24 08:47 | 31.89160 | -14.84142 | 34140 ft | 468 kts | 28° |
| 2026-04-24 08:47 | 31.94569 | -14.79887 | 34140 ft | 467 kts | 28° |
| 2026-04-24 08:48 | 31.99978 | -14.75627 | 34140 ft | 467 kts | 28° |
| 2026-04-24 08:48 | 32.05354 | -14.71386 | 34141 ft | 467 kts | 28° |
| 2026-04-24 08:49 | 32.10758 | -14.67116 | 34139 ft | 467 kts | 27° |
| 2026-04-24 08:49 | 32.16160 | -14.62843 | 34141 ft | 467 kts | 27° |
| 2026-04-24 08:50 | 32.21563 | -14.58562 | 34137 ft | 467 kts | 27° |
| 2026-04-24 08:50 | 32.26961 | -14.54279 | 34135 ft | 467 kts | 27° |
| 2026-04-24 08:51 | 32.32312 | -14.50027 | 34140 ft | 466 kts | 27° |
| 2026-04-24 08:51 | 32.37697 | -14.45741 | 34138 ft | 466 kts | 27° |
| 2026-04-24 08:52 | 32.43082 | -14.41450 | 34147 ft | 465 kts | 27° |
| 2026-04-24 08:52 | 32.48456 | -14.37160 | 34134 ft | 465 kts | 27° |
| 2026-04-24 08:53 | 32.53815 | -14.32878 | 34140 ft | 464 kts | 27° |
| 2026-04-24 08:53 | 32.59128 | -14.28624 | 34145 ft | 463 kts | 27° |
| 2026-04-24 08:54 | 32.64469 | -14.24343 | 34143 ft | 463 kts | 27° |
| 2026-04-24 08:54 | 32.69808 | -14.20057 | 34146 ft | 462 kts | 27° |
| 2026-04-24 08:55 | 32.75130 | -14.15778 | 34140 ft | 462 kts | 27° |
| 2026-04-24 08:55 | 32.80454 | -14.11492 | 34143 ft | 461 kts | 27° |
| 2026-04-24 08:56 | 32.85732 | -14.07236 | 34140 ft | 461 kts | 27° |
| 2026-04-24 08:56 | 32.91038 | -14.02951 | 34143 ft | 461 kts | 27° |
| 2026-04-24 08:57 | 32.96353 | -13.98653 | 34149 ft | 461 kts | 27° |
| 2026-04-24 08:57 | 33.01652 | -13.94361 | 34149 ft | 460 kts | 27° |
| 2026-04-24 08:58 | 33.06924 | -13.90084 | 34147 ft | 460 kts | 27° |
| 2026-04-24 08:58 | 33.12216 | -13.85785 | 34148 ft | 460 kts | 27° |
| 2026-04-24 08:59 | 33.17509 | -13.81476 | 34144 ft | 460 kts | 27° |
| 2026-04-24 08:59 | 33.22786 | -13.77154 | 34146 ft | 460 kts | 27° |
| 2026-04-24 09:00 | 33.28058 | -13.72827 | 34144 ft | 459 kts | 27° |
| 2026-04-24 09:00 | 33.33324 | -13.68500 | 34150 ft | 459 kts | 27° |
| 2026-04-24 09:01 | 33.38552 | -13.64198 | 34149 ft | 458 kts | 27° |
| 2026-04-24 09:01 | 33.43803 | -13.59872 | 34147 ft | 458 kts | 27° |
| 2026-04-24 09:02 | 33.49047 | -13.55545 | 34148 ft | 457 kts | 27° |
| 2026-04-24 09:02 | 33.54280 | -13.51220 | 34147 ft | 456 kts | 27° |
| 2026-04-24 09:03 | 33.59500 | -13.46900 | 34141 ft | 455 kts | 26° |
| 2026-04-24 09:03 | 33.64712 | -13.42580 | 34149 ft | 454 kts | 26° |
| 2026-04-24 09:04 | 33.69909 | -13.38266 | 34153 ft | 453 kts | 26° |
| 2026-04-24 09:04 | 33.75058 | -13.33985 | 34146 ft | 452 kts | 26° |
| 2026-04-24 09:05 | 33.80231 | -13.29678 | 34149 ft | 451 kts | 26° |
| 2026-04-24 09:05 | 33.85390 | -13.25377 | 34147 ft | 450 kts | 26° |
| 2026-04-24 09:06 | 33.90532 | -13.21083 | 34148 ft | 450 kts | 26° |
| 2026-04-24 09:06 | 33.95668 | -13.16787 | 34150 ft | 449 kts | 26° |
| 2026-04-24 09:07 | 34.00792 | -13.12495 | 34150 ft | 448 kts | 26° |
| 2026-04-24 09:07 | 34.08429 | -13.06087 | 34158 ft | 447 kts | 26° |
| 2026-04-24 09:08 | 34.13549 | -13.01784 | 34412 ft | 448 kts | 26° |
| 2026-04-24 09:08 | 34.16096 | -12.99637 | 34691 ft | 445 kts | 26° |
| 2026-04-24 09:08 | 34.18631 | -12.97501 | 34889 ft | 445 kts | 26° |
| 2026-04-24 09:09 | 34.21173 | -12.95359 | 35028 ft | 445 kts | 26° |
| 2026-04-24 09:09 | 34.23719 | -12.93213 | 35120 ft | 445 kts | 26° |
| 2026-04-24 09:09 | 34.28793 | -12.88937 | 35150 ft | 444 kts | 26° |
| 2026-04-24 09:10 | 34.33852 | -12.84705 | 35161 ft | 444 kts | 26° |
| 2026-04-24 09:10 | 34.38945 | -12.80442 | 35161 ft | 445 kts | 26° |
| 2026-04-24 09:11 | 34.44039 | -12.76166 | 35158 ft | 445 kts | 26° |
| 2026-04-24 09:11 | 34.49130 | -12.71883 | 35157 ft | 445 kts | 26° |
| 2026-04-24 09:12 | 34.54219 | -12.67594 | 35152 ft | 445 kts | 26° |
| 2026-04-24 09:12 | 34.59269 | -12.63333 | 35151 ft | 444 kts | 26° |
| 2026-04-24 09:13 | 34.64334 | -12.59051 | 35149 ft | 443 kts | 26° |
| 2026-04-24 09:13 | 34.69395 | -12.54767 | 35152 ft | 442 kts | 26° |
| 2026-04-24 09:14 | 34.74430 | -12.50499 | 35152 ft | 441 kts | 26° |
| 2026-04-24 09:14 | 34.79461 | -12.46227 | 35155 ft | 440 kts | 26° |
| 2026-04-24 09:15 | 34.84445 | -12.41989 | 35150 ft | 438 kts | 26° |
| 2026-04-24 09:15 | 34.89439 | -12.37737 | 35152 ft | 438 kts | 26° |
| 2026-04-24 09:16 | 34.94425 | -12.33485 | 35155 ft | 437 kts | 26° |
| 2026-04-24 09:16 | 34.98563 | -12.29952 | 35153 ft | 436 kts | 26° |
| 2026-04-24 09:17 | 35.03538 | -12.25697 | 35148 ft | 436 kts | 26° |
| 2026-04-24 09:17 | 35.09316 | -12.20748 | 35150 ft | 436 kts | 26° |
| 2026-04-24 09:18 | 35.13477 | -12.17178 | 35152 ft | 436 kts | 26° |
| 2026-04-24 09:18 | 35.18414 | -12.12937 | 35154 ft | 436 kts | 26° |
| 2026-04-24 09:19 | 35.23380 | -12.08665 | 35154 ft | 436 kts | 26° |
| 2026-04-24 09:19 | 35.28354 | -12.04379 | 35152 ft | 437 kts | 26° |
| 2026-04-24 09:20 | 35.34131 | -11.99392 | 35153 ft | 437 kts | 27° |
| 2026-04-24 09:20 | 35.38265 | -11.95818 | 35154 ft | 437 kts | 27° |
| 2026-04-24 09:21 | 35.43232 | -11.91518 | 35152 ft | 437 kts | 27° |
| 2026-04-24 09:21 | 35.48204 | -11.87207 | 35147 ft | 437 kts | 27° |
| 2026-04-24 09:22 | 35.53178 | -11.82888 | 35147 ft | 437 kts | 27° |
| 2026-04-24 09:22 | 35.58152 | -11.78562 | 35147 ft | 437 kts | 27° |
| 2026-04-24 09:23 | 35.63118 | -11.74236 | 35144 ft | 438 kts | 27° |
| 2026-04-24 09:23 | 35.68061 | -11.69924 | 35149 ft | 438 kts | 27° |
| 2026-04-24 09:24 | 35.73034 | -11.65578 | 35141 ft | 438 kts | 27° |
| 2026-04-24 09:24 | 35.78007 | -11.61226 | 35144 ft | 438 kts | 28° |
| 2026-04-24 09:25 | 35.82941 | -11.56900 | 35144 ft | 438 kts | 28° |
| 2026-04-24 09:25 | 35.87904 | -11.52542 | 35147 ft | 438 kts | 28° |
| 2026-04-24 09:26 | 35.92864 | -11.48181 | 35145 ft | 438 kts | 28° |
| 2026-04-24 09:26 | 35.97842 | -11.43796 | 35146 ft | 438 kts | 28° |
| 2026-04-24 09:27 | 36.02785 | -11.39428 | 35144 ft | 438 kts | 28° |
| 2026-04-24 09:27 | 36.07743 | -11.35036 | 35146 ft | 438 kts | 28° |
| 2026-04-24 09:28 | 36.12691 | -11.30646 | 35146 ft | 437 kts | 29° |
| 2026-04-24 09:28 | 36.17606 | -11.26278 | 35145 ft | 437 kts | 29° |
| 2026-04-24 09:29 | 36.22549 | -11.21879 | 35150 ft | 437 kts | 29° |
| 2026-04-24 09:29 | 36.27488 | -11.17476 | 35144 ft | 436 kts | 29° |
| 2026-04-24 09:30 | 36.33230 | -11.12349 | 35148 ft | 436 kts | 29° |
| 2026-04-24 09:30 | 36.37317 | -11.08694 | 35145 ft | 435 kts | 29° |
| 2026-04-24 09:31 | 36.42228 | -11.04296 | 35146 ft | 435 kts | 30° |
| 2026-04-24 09:31 | 36.47129 | -10.99900 | 35147 ft | 434 kts | 30° |
| 2026-04-24 09:32 | 36.52020 | -10.95505 | 35148 ft | 434 kts | 30° |
| 2026-04-24 09:32 | 36.56878 | -10.91133 | 35145 ft | 433 kts | 30° |
| 2026-04-24 09:33 | 36.61758 | -10.86735 | 35143 ft | 432 kts | 30° |
| 2026-04-24 09:33 | 36.66631 | -10.82335 | 35146 ft | 432 kts | 30° |
| 2026-04-24 09:34 | 36.71498 | -10.77934 | 35142 ft | 431 kts | 30° |
| 2026-04-24 09:34 | 36.76325 | -10.73564 | 35144 ft | 431 kts | 30° |
| 2026-04-24 09:35 | 36.81181 | -10.69158 | 35145 ft | 431 kts | 30° |
| 2026-04-24 09:35 | 36.86042 | -10.64742 | 35142 ft | 432 kts | 30° |
| 2026-04-24 09:36 | 36.90903 | -10.60318 | 35145 ft | 432 kts | 31° |
| 2026-04-24 09:36 | 36.95768 | -10.55885 | 35136 ft | 432 kts | 31° |
| 2026-04-24 09:37 | 37.00603 | -10.51470 | 35137 ft | 433 kts | 31° |
| 2026-04-24 09:37 | 37.05472 | -10.47018 | 35136 ft | 434 kts | 31° |
| 2026-04-24 09:38 | 37.10365 | -10.42536 | 35142 ft | 435 kts | 31° |
| 2026-04-24 09:38 | 37.15224 | -10.38079 | 35144 ft | 436 kts | 31° |
| 2026-04-24 09:39 | 37.20126 | -10.33574 | 35143 ft | 437 kts | 32° |
| 2026-04-24 09:39 | 37.25051 | -10.29041 | 35141 ft | 438 kts | 32° |
| 2026-04-24 09:40 | 37.29958 | -10.24517 | 35140 ft | 440 kts | 32° |
| 2026-04-24 09:40 | 37.34900 | -10.19953 | 35136 ft | 441 kts | 32° |
| 2026-04-24 09:41 | 37.39845 | -10.15378 | 35137 ft | 442 kts | 32° |
| 2026-04-24 09:41 | 37.44808 | -10.10780 | 35137 ft | 443 kts | 33° |
| 2026-04-24 09:42 | 37.49783 | -10.06161 | 35137 ft | 445 kts | 33° |
| 2026-04-24 09:42 | 37.54749 | -10.01545 | 35133 ft | 446 kts | 33° |
| 2026-04-24 09:43 | 37.59741 | -9.96895 | 35136 ft | 447 kts | 33° |
| 2026-04-24 09:43 | 37.64749 | -9.92222 | 35133 ft | 448 kts | 34° |
| 2026-04-24 09:44 | 37.69770 | -9.87530 | 35136 ft | 449 kts | 34° |
| 2026-04-24 09:44 | 37.74797 | -9.82824 | 35133 ft | 449 kts | 34° |
| 2026-04-24 09:45 | 37.79798 | -9.78133 | 35136 ft | 450 kts | 34° |
| 2026-04-24 09:45 | 37.84826 | -9.73409 | 35133 ft | 450 kts | 35° |
| 2026-04-24 09:46 | 37.89860 | -9.68671 | 35132 ft | 451 kts | 35° |
| 2026-04-24 09:46 | 37.94895 | -9.63924 | 35132 ft | 451 kts | 35° |